KMGR/MGR METAR and TAF weather

Enter ICAO airport designator
Station Type Date Time Source
KMGR METAR 2021/09/16 22:15 UTC NOAA

KMGR 162215Z AUTO 00000KT 10SM VCTS CLR 23/22 A3000 RMK AO2 LTG DSNT E AND SE


Station Type Date Time Source
KMGR Decoded METAR 2021/09/16 22:15 UTC NOAA

Moultrie, Moultrie Municipal Airport, GA, United States (KMGR) 31-05-05N 083-48-11W
Sep 16, 2021 - 06:15 PM EDT / 2021.09.16 2215 UTC
Wind: Calm:0
Visibility: 10 mile(s):0
Sky conditions: clear
Weather: thunder in the vicinity; Lightning observed
Temperature: 73 F (23 C)
Dew Point: 71 F (22 C)
Relative Humidity: 94%
Pressure (altimeter): 30 in. Hg (1015 hPa)
ob: KMGR 162215Z AUTO 00000KT 10SM VCTS CLR 23/22 A3000 RMK AO2 LTG DSNT E AND SE
cycle: 22

Station Type Date Time Source
KMGR TAF UTC NOAA

Error!

Example: see airport list